Terminal Aerodrome Forecast
Issued by NWS Twin Cities, MN

Home | Current Version | Previous Version | Graphics & Text | Print | Product List | Glossary On
Versions: 1 2 3 4 5 6 7 8 9 10 11 12 13 14 15 16 17 18 19 20 21 22 23 24 25 26 27 28 29
000
FTUS43 KMPX 191525 AAB
TAFMSP
TAF AMD
KMSP 191525Z 1915/2018 16008KT P6SM OVC013
     FM191800 25011G18KT P6SM VCSH BKN020 OVC035
     FM192100 32013G21KT P6SM SCT020 BKN040
     FM200200 32011KT P6SM BKN100
     FM201200 31016G25KT P6SM OVC050=

USA.gov is the U.S. government's official web portal to all federal, state and local government web resources and services.